Time;durP1;ratioP1;P1;durP2;ratioP2;P2;SDS_P1;SDS_P2;PMS_P1;PMS_P2;Temp;Humidity;BMP_temperature;BMP_pressure;BME280_temperature;BME280_humidity;BME280_pressure;Samples;Min_cycle;Max_cycle;Signal;HPM_P1;HPM_P2
2023/01/12 00:00:32;;;;;;;7.00;1.20;;;;;;;;;;5046801;28;20040;-82
2023/01/12 00:02:57;;;;;;;6.40;1.33;;;;;;;;;;5028742;28;20029;-81
2023/01/12 00:05:22;;;;;;;6.78;1.33;;;;;;;;;;5046294;28;20028;-81
2023/01/12 00:07:47;;;;;;;8.60;1.67;;;;;;;;;;5047600;28;20036;-81
2023/01/12 00:10:13;;;;;;;11.82;1.60;;;;;;;;;;5046537;28;20063;-81
2023/01/12 00:12:38;;;;;;;7.30;1.40;;;;;;;;;;5046176;28;20037;-81
2023/01/12 00:15:04;;;;;;;11.98;1.90;;;;;;;;;;5028499;28;20045;-81
2023/01/12 00:17:29;;;;;;;7.80;1.70;;;;;;;;;;5029808;28;20034;-81
2023/01/12 00:19:55;;;;;;;6.20;1.63;;;;;;;;;;5007747;28;20149;-81
2023/01/12 00:22:20;;;;;;;9.50;1.50;;;;;;;;;;5006029;28;20046;-81
2023/01/12 00:24:48;;;;;;;7.78;1.80;;;;;;;;;;5007716;28;20065;-81
2023/01/12 00:27:16;;;;;;;7.15;1.05;;;;;;;;;;5008242;28;20546;-81
2023/01/12 00:29:42;;;;;;;4.70;1.55;;;;;;;;;;5006506;28;20649;-82
2023/01/12 00:32:11;;;;;;;6.85;1.50;;;;;;;;;;5008116;28;20104;-82
2023/01/12 00:34:36;;;;;;;2.88;1.27;;;;;;;;;;4990232;28;20057;-82
2023/01/12 00:37:02;;;;;;;10.43;2.00;;;;;;;;;;5018465;28;20605;-82
2023/01/12 00:39:28;;;;;;;7.03;1.67;;;;;;;;;;5008593;28;20070;-82
2023/01/12 00:47:22;;;;;;;10.43;1.40;;;;;;;;;;5026244;28;20099;-82
2023/01/12 00:49:48;;;;;;;6.53;1.20;;;;;;;;;;5006818;28;20056;-82
2023/01/12 00:52:16;;;;;;;9.05;1.48;;;;;;;;;;5025277;28;20037;-82
2023/01/12 00:54:41;;;;;;;7.30;1.60;;;;;;;;;;5007619;28;20040;-81
2023/01/12 00:57:08;;;;;;;6.55;1.58;;;;;;;;;;5025535;28;20037;-80
2023/01/12 00:59:33;;;;;;;9.85;1.85;;;;;;;;;;5025280;28;20046;-81
2023/01/12 01:01:59;;;;;;;8.52;0.98;;;;;;;;;;5008988;28;20061;-81
2023/01/12 01:04:24;;;;;;;12.60;1.50;;;;;;;;;;5007787;28;20033;-83
2023/01/12 01:06:49;;;;;;;10.63;1.88;;;;;;;;;;5005102;28;20037;-81
2023/01/12 01:09:15;;;;;;;14.90;1.88;;;;;;;;;;5007399;28;20033;-81
2023/01/12 01:11:40;;;;;;;7.78;1.52;;;;;;;;;;5011226;28;20037;-82
2023/01/12 01:14:06;;;;;;;7.43;1.38;;;;;;;;;;5025303;28;20973;-81
2023/01/12 01:16:32;;;;;;;11.27;1.95;;;;;;;;;;5025758;28;20535;-82
2023/01/12 01:18:58;;;;;;;8.80;1.65;;;;;;;;;;5007687;28;20045;-81
2023/01/12 01:21:24;;;;;;;15.35;1.85;;;;;;;;;;5025127;28;20074;-82
2023/01/12 01:23:49;;;;;;;7.72;1.50;;;;;;;;;;5025824;28;20029;-82
2023/01/12 01:26:18;;;;;;;9.32;1.60;;;;;;;;;;5007146;28;20017;-82
2023/01/12 01:28:44;;;;;;;17.52;1.73;;;;;;;;;;5026127;28;20054;-82
2023/01/12 01:31:15;;;;;;;13.88;2.13;;;;;;;;;;4990618;28;20041;-81
2023/01/12 01:33:42;;;;;;;9.65;1.33;;;;;;;;;;5004330;28;20144;-82
2023/01/12 01:36:08;;;;;;;7.50;1.58;;;;;;;;;;5003915;28;20041;-81
2023/01/12 01:38:34;;;;;;;11.15;1.67;;;;;;;;;;5025814;28;20172;-81
2023/01/12 01:41:00;;;;;;;9.18;2.13;;;;;;;;;;5007649;28;20017;-81
2023/01/12 01:43:27;;;;;;;10.23;1.42;;;;;;;;;;5025159;28;20037;-82
2023/01/12 01:46:03;;;;;;;10.10;1.30;;;;;;;;;;5007362;28;20029;-82
2023/01/12 01:48:31;;;;;;;9.45;1.50;;;;;;;;;;5007079;28;20037;-82
2023/01/12 01:51:03;;;;;;;7.93;1.60;;;;;;;;;;5021938;28;20080;-82
2023/01/12 01:53:33;;;;;;;12.57;1.80;;;;;;;;;;5023736;28;20161;-81
2023/01/12 01:56:04;;;;;;;8.85;1.83;;;;;;;;;;5005999;28;20056;-81
2023/01/12 01:58:34;;;;;;;10.45;1.42;;;;;;;;;;5007719;28;20121;-81
2023/01/12 02:00:59;;;;;;;10.63;1.27;;;;;;;;;;5024652;28;20715;-81
2023/01/12 02:03:25;;;;;;;7.72;1.00;;;;;;;;;;4997275;28;20099;-82
2023/01/12 02:05:52;;;;;;;9.00;1.42;;;;;;;;;;5003389;28;20056;-81
2023/01/12 02:08:53;;;;;;;19.00;1.58;;;;;;;;;;5004140;28;20041;-80
2023/01/12 02:17:16;;;;;;;8.98;1.52;;;;;;;;;;5018109;28;20437;-81
2023/01/12 02:20:28;;;;;;;3.80;1.27;;;;;;;;;;5044526;28;20048;-81
2023/01/12 02:23:21;;;;;;;5.75;1.70;;;;;;;;;;5046460;28;20049;-81
2023/01/12 02:25:50;;;;;;;5.38;1.52;;;;;;;;;;5046840;28;20041;-81
2023/01/12 02:28:18;;;;;;;6.20;2.10;;;;;;;;;;5034992;28;20044;-81
2023/01/12 02:31:07;;;;;;;8.55;1.88;;;;;;;;;;5042965;28;20602;-81
2023/01/12 02:33:57;;;;;;;11.63;2.05;;;;;;;;;;5014214;28;20073;-82
2023/01/12 02:36:34;;;;;;;8.77;1.98;;;;;;;;;;5006215;28;20041;-82
2023/01/12 02:39:19;;;;;;;10.73;1.40;;;;;;;;;;5022918;28;20042;-81
2023/01/12 02:45:05;;;;;;;7.10;1.98;;;;;;;;;;5012456;28;20036;-81
2023/01/12 02:47:40;;;;;;;12.00;1.42;;;;;;;;;;5026571;28;20524;-82
2023/01/12 02:50:11;;;;;;;13.13;2.45;;;;;;;;;;5028030;28;20434;-81
2023/01/12 02:52:40;;;;;;;6.75;2.00;;;;;;;;;;5027829;28;20475;-81
2023/01/12 02:55:06;;;;;;;11.43;1.52;;;;;;;;;;5028230;28;20052;-82
2023/01/12 02:57:33;;;;;;;11.73;1.60;;;;;;;;;;5010236;28;20033;-82
2023/01/12 03:00:00;;;;;;;10.88;1.38;;;;;;;;;;5007270;28;20715;-82
2023/01/12 03:02:26;;;;;;;9.13;1.65;;;;;;;;;;5009857;28;20033;-81
2023/01/12 03:04:52;;;;;;;11.77;1.45;;;;;;;;;;5028635;28;20021;-81
2023/01/12 03:07:29;;;;;;;13.73;1.80;;;;;;;;;;5008451;28;20030;-81
2023/01/12 03:10:17;;;;;;;9.60;1.17;;;;;;;;;;5020893;28;20056;-80
2023/01/12 03:12:44;;;;;;;6.55;1.48;;;;;;;;;;5007646;28;20044;-82
2023/01/12 03:15:15;;;;;;;15.70;1.83;;;;;;;;;;4990506;28;20577;-81
2023/01/12 03:17:51;;;;;;;14.38;1.80;;;;;;;;;;5005189;28;20081;-81
2023/01/12 03:20:25;;;;;;;11.40;1.20;;;;;;;;;;5006469;28;20080;-82
2023/01/12 03:22:55;;;;;;;5.90;1.38;;;;;;;;;;5006244;28;20075;-81
2023/01/12 03:25:22;;;;;;;5.95;1.40;;;;;;;;;;5007506;28;20038;-81
2023/01/12 03:27:51;;;;;;;15.30;1.95;;;;;;;;;;5010381;28;20033;-81
2023/01/12 03:30:20;;;;;;;7.88;1.65;;;;;;;;;;5027376;28;20034;-81
2023/01/12 03:32:45;;;;;;;8.10;2.03;;;;;;;;;;5027217;28;20022;-81
2023/01/12 03:35:11;;;;;;;11.27;1.10;;;;;;;;;;5027682;28;20033;-81
2023/01/12 03:37:41;;;;;;;8.57;0.98;;;;;;;;;;5024873;28;20021;-81
2023/01/12 03:40:36;;;;;;;5.97;1.13;;;;;;;;;;5026906;28;20034;-81
2023/01/12 03:43:30;;;;;;;10.93;1.40;;;;;;;;;;5027406;28;20076;-81
2023/01/12 03:46:17;;;;;;;10.27;1.98;;;;;;;;;;5023127;28;20084;-81
2023/01/12 03:49:23;;;;;;;7.10;1.08;;;;;;;;;;5025592;28;20029;-81
2023/01/12 03:51:51;;;;;;;9.43;1.58;;;;;;;;;;5025303;28;20041;-81
2023/01/12 03:54:17;;;;;;;6.82;1.15;;;;;;;;;;5025961;28;20041;-81
2023/01/12 03:56:44;;;;;;;10.32;1.50;;;;;;;;;;5025836;28;20116;-81
2023/01/12 03:59:10;;;;;;;15.10;2.30;;;;;;;;;;5026052;28;20024;-81
2023/01/12 04:01:35;;;;;;;11.68;1.50;;;;;;;;;;5026849;28;20036;-81
2023/01/12 04:04:01;;;;;;;4.55;1.48;;;;;;;;;;5025546;28;20033;-80
2023/01/12 04:06:26;;;;;;;8.70;1.38;;;;;;;;;;5027191;28;20037;-81
2023/01/12 04:08:51;;;;;;;6.20;1.23;;;;;;;;;;5022110;28;20029;-81
2023/01/12 04:14:01;;;;;;;12.45;1.42;;;;;;;;;;5027150;28;20402;-81
2023/01/12 04:16:26;;;;;;;8.05;1.58;;;;;;;;;;5026208;28;20510;-80
2023/01/12 04:18:51;;;;;;;5.15;1.50;;;;;;;;;;5026786;28;20045;-81
2023/01/12 04:24:01;;;;;;;9.07;1.63;;;;;;;;;;5026493;28;20032;-81
2023/01/12 04:26:26;;;;;;;6.88;1.27;;;;;;;;;;5026212;28;20033;-81
2023/01/12 04:28:51;;;;;;;9.45;3.30;;;;;;;;;;5035232;28;20159;-81
2023/01/12 04:31:17;;;;;;;10.13;1.30;;;;;;;;;;5034100;28;20049;-82
2023/01/12 04:33:43;;;;;;;6.38;1.35;;;;;;;;;;5026482;28;20120;-81
2023/01/12 04:36:12;;;;;;;10.05;2.22;;;;;;;;;;5032816;28;20042;-82
2023/01/12 04:38:38;;;;;;;7.38;1.45;;;;;;;;;;5007462;28;20036;-82
2023/01/12 04:41:05;;;;;;;7.32;1.20;;;;;;;;;;5008052;28;20105;-82
2023/01/12 04:43:31;;;;;;;11.13;2.22;;;;;;;;;;5013597;28;20049;-81
2023/01/12 04:45:56;;;;;;;8.80;1.00;;;;;;;;;;5019688;28;20400;-82
2023/01/12 04:48:21;;;;;;;4.18;1.10;;;;;;;;;;5025198;28;20604;-81
2023/01/12 04:50:49;;;;;;;8.15;1.10;;;;;;;;;;5024216;28;20380;-80
2023/01/12 04:53:14;;;;;;;6.07;1.48;;;;;;;;;;5024508;28;20049;-82
2023/01/12 04:55:41;;;;;;;10.45;1.42;;;;;;;;;;5025069;28;20032;-80
2023/01/12 04:58:07;;;;;;;2.88;1.02;;;;;;;;;;5025628;28;20033;-81
2023/01/12 05:00:32;;;;;;;8.48;1.23;;;;;;;;;;5025064;28;20040;-81
2023/01/12 05:03:01;;;;;;;8.95;1.20;;;;;;;;;;5026131;28;20040;-81
2023/01/12 05:05:27;;;;;;;7.57;1.52;;;;;;;;;;5024329;28;20033;-81
2023/01/12 05:10:36;;;;;;;5.95;1.30;;;;;;;;;;5026166;28;20156;-81
2023/01/12 05:13:02;;;;;;;12.10;2.28;;;;;;;;;;5025632;28;20108;-81
2023/01/12 05:15:27;;;;;;;12.70;2.15;;;;;;;;;;5025462;28;20034;-82
2023/01/12 05:17:53;;;;;;;5.53;1.50;;;;;;;;;;5009768;28;20049;-81
2023/01/12 05:20:19;;;;;;;10.82;1.25;;;;;;;;;;5005858;28;20018;-81
2023/01/12 05:22:47;;;;;;;9.73;1.60;;;;;;;;;;4987736;28;20113;-81
2023/01/12 05:25:13;;;;;;;6.00;1.00;;;;;;;;;;4988123;28;20042;-81
2023/01/12 05:27:38;;;;;;;7.65;1.30;;;;;;;;;;5005429;28;20101;-82
2023/01/12 05:30:04;;;;;;;8.70;1.40;;;;;;;;;;5005821;28;20025;-81
2023/01/12 05:32:29;;;;;;;5.55;1.52;;;;;;;;;;5005210;28;20025;-81
2023/01/12 05:34:55;;;;;;;7.72;1.40;;;;;;;;;;5005941;28;20427;-81
2023/01/12 05:37:20;;;;;;;13.60;1.98;;;;;;;;;;4987717;28;20034;-82
2023/01/12 05:39:45;;;;;;;5.03;1.30;;;;;;;;;;5005686;28;20034;-81
2023/01/12 05:44:55;;;;;;;7.35;1.23;;;;;;;;;;5004591;28;20415;-82
2023/01/12 05:47:20;;;;;;;4.95;1.25;;;;;;;;;;4987092;28;20018;-82
2023/01/12 05:49:45;;;;;;;8.52;1.92;;;;;;;;;;5004845;28;20025;-82
2023/01/12 05:52:10;;;;;;;6.38;1.33;;;;;;;;;;5004366;28;20380;-81
2023/01/12 05:54:36;;;;;;;14.05;2.03;;;;;;;;;;5004275;28;20053;-82
2023/01/12 05:57:01;;;;;;;6.45;1.13;;;;;;;;;;5004775;28;20048;-82
2023/01/12 05:59:26;;;;;;;7.63;1.38;;;;;;;;;;5004903;28;20026;-81
2023/01/12 06:01:52;;;;;;;8.20;1.63;;;;;;;;;;4993576;28;20029;-81
2023/01/12 06:04:17;;;;;;;6.22;1.58;;;;;;;;;;5022995;28;20033;-82
2023/01/12 06:06:44;;;;;;;10.70;2.05;;;;;;;;;;5023687;28;20044;-81
2023/01/12 06:09:09;;;;;;;7.57;1.55;;;;;;;;;;5023579;28;20137;-81
2023/01/12 06:14:19;;;;;;;9.82;1.65;;;;;;;;;;5024488;28;20055;-81
2023/01/12 06:16:44;;;;;;;5.00;1.73;;;;;;;;;;5016216;28;20640;-82
2023/01/12 06:19:10;;;;;;;6.55;1.23;;;;;;;;;;5026627;28;20029;-81
2023/01/12 06:21:37;;;;;;;7.75;1.40;;;;;;;;;;5026465;28;20041;-81
2023/01/12 06:24:03;;;;;;;4.15;1.25;;;;;;;;;;5024369;28;20853;-81
2023/01/12 06:26:29;;;;;;;11.00;1.70;;;;;;;;;;5027998;28;20025;-82
2023/01/12 06:28:54;;;;;;;14.23;2.08;;;;;;;;;;5014440;28;20091;-81
2023/01/12 06:31:19;;;;;;;7.03;2.28;;;;;;;;;;5013231;28;20037;-81
2023/01/12 06:33:45;;;;;;;9.68;1.40;;;;;;;;;;5022965;28;20033;-81
2023/01/12 06:36:10;;;;;;;14.07;1.52;;;;;;;;;;5028073;28;20040;-82
2023/01/12 06:38:37;;;;;;;4.13;1.00;;;;;;;;;;5027446;28;20407;-82
2023/01/12 06:41:07;;;;;;;7.90;1.58;;;;;;;;;;5016980;28;20036;-80
2023/01/12 06:43:33;;;;;;;9.70;1.70;;;;;;;;;;5047560;28;20117;-81
2023/01/12 06:45:59;;;;;;;8.30;1.75;;;;;;;;;;5062350;28;20649;-81
2023/01/12 06:48:27;;;;;;;9.98;2.65;;;;;;;;;;5068070;28;20024;-82
2023/01/12 06:51:03;;;;;;;10.30;1.48;;;;;;;;;;5068309;28;20036;-82
2023/01/12 06:53:29;;;;;;;8.60;2.03;;;;;;;;;;5066774;28;20024;-81
2023/01/12 06:55:54;;;;;;;4.25;1.63;;;;;;;;;;5067785;28;20020;-82
2023/01/12 06:58:19;;;;;;;13.45;1.60;;;;;;;;;;5042436;28;20036;-81
2023/01/12 07:00:45;;;;;;;10.73;1.85;;;;;;;;;;5027545;28;20172;-80
2023/01/12 07:03:16;;;;;;;9.02;1.25;;;;;;;;;;5027760;28;20501;-81
2023/01/12 07:05:41;;;;;;;10.40;1.70;;;;;;;;;;5027710;28;20037;-81
2023/01/12 07:08:07;;;;;;;5.57;1.35;;;;;;;;;;5026285;28;20556;-81
2023/01/12 07:10:32;;;;;;;7.30;1.20;;;;;;;;;;5027404;28;20020;-81
2023/01/12 07:13:00;;;;;;;6.68;1.80;;;;;;;;;;5027497;28;20037;-81
2023/01/12 07:15:25;;;;;;;17.25;1.92;;;;;;;;;;5017380;28;20052;-80
2023/01/12 07:17:55;;;;;;;8.07;1.70;;;;;;;;;;5011062;28;20522;-82
2023/01/12 07:20:21;;;;;;;7.40;1.60;;;;;;;;;;5014987;28;20068;-81
2023/01/12 07:22:47;;;;;;;11.95;1.92;;;;;;;;;;5012064;28;20026;-81
2023/01/12 07:25:12;;;;;;;6.70;1.23;;;;;;;;;;5008325;28;20034;-81
2023/01/12 07:27:37;;;;;;;8.23;1.63;;;;;;;;;;5008553;28;20046;-82
2023/01/12 07:30:03;;;;;;;8.52;1.33;;;;;;;;;;5023184;28;20029;-82
2023/01/12 07:32:29;;;;;;;11.98;2.80;;;;;;;;;;5020851;28;20620;-82
2023/01/12 07:34:54;;;;;;;12.35;1.95;;;;;;;;;;5015399;28;20156;-82
2023/01/12 07:37:19;;;;;;;9.30;1.98;;;;;;;;;;5025819;28;20064;-80
2023/01/12 07:39:45;;;;;;;14.43;1.85;;;;;;;;;;5020172;28;20021;-80
2023/01/12 07:42:22;;;;;;;13.52;1.90;;;;;;;;;;5035263;28;20056;-81
2023/01/12 07:44:47;;;;;;;6.57;1.42;;;;;;;;;;5040040;28;20033;-81
2023/01/12 07:47:13;;;;;;;8.07;1.52;;;;;;;;;;5027871;28;20813;-81
2023/01/12 07:49:39;;;;;;;5.93;1.30;;;;;;;;;;5039370;28;20041;-80
2023/01/12 07:52:04;;;;;;;10.20;1.70;;;;;;;;;;5035891;28;20067;-80
2023/01/12 07:54:30;;;;;;;3.80;1.25;;;;;;;;;;5046604;28;20049;-82
2023/01/12 07:56:56;;;;;;;6.95;1.35;;;;;;;;;;5046023;28;20032;-81
2023/01/12 07:59:22;;;;;;;9.55;1.35;;;;;;;;;;5032700;28;20029;-81
2023/01/12 08:01:47;;;;;;;16.98;3.22;;;;;;;;;;5025252;28;20091;-81
2023/01/12 08:04:12;;;;;;;16.13;1.55;;;;;;;;;;5037911;28;20040;-81
2023/01/12 08:06:38;;;;;;;9.93;1.50;;;;;;;;;;5031999;28;20040;-80
2023/01/12 08:09:03;;;;;;;8.75;1.83;;;;;;;;;;5039265;28;20036;-80
2023/01/12 08:11:28;;;;;;;5.35;1.50;;;;;;;;;;5043981;28;20056;-81
2023/01/12 08:13:56;;;;;;;8.40;1.33;;;;;;;;;;5044454;28;20032;-81
2023/01/12 08:16:30;;;;;;;10.57;1.52;;;;;;;;;;5044349;28;20434;-81
2023/01/12 08:19:03;;;;;;;6.22;1.45;;;;;;;;;;5040745;28;20047;-81
2023/01/12 08:21:34;;;;;;;7.65;1.13;;;;;;;;;;5045305;28;20044;-81
2023/01/12 08:24:03;;;;;;;4.45;1.20;;;;;;;;;;5033834;28;20038;-80
2023/01/12 08:26:32;;;;;;;7.15;1.17;;;;;;;;;;5006076;28;20034;-81
2023/01/12 08:29:03;;;;;;;8.30;1.73;;;;;;;;;;5009163;28;20030;-81
2023/01/12 08:31:30;;;;;;;8.43;1.15;;;;;;;;;;5005378;28;20380;-81
2023/01/12 08:33:55;;;;;;;5.57;1.55;;;;;;;;;;5016477;28;20540;-81
2023/01/12 08:36:23;;;;;;;6.55;1.48;;;;;;;;;;5023979;28;20117;-80
2023/01/12 08:38:48;;;;;;;7.28;1.20;;;;;;;;;;5025496;28;20391;-81
2023/01/12 08:41:32;;;;;;;8.20;1.58;;;;;;;;;;5020657;28;20091;-80
2023/01/12 08:44:02;;;;;;;9.88;1.63;;;;;;;;;;5039478;28;20032;-80
2023/01/12 08:46:37;;;;;;;12.40;1.98;;;;;;;;;;5025596;28;20071;-80
2023/01/12 08:49:08;;;;;;;8.57;1.35;;;;;;;;;;5019707;28;20146;-81
2023/01/12 08:51:33;;;;;;;9.50;1.40;;;;;;;;;;5015046;28;20041;-81
2023/01/12 08:54:00;;;;;;;8.00;1.13;;;;;;;;;;5014681;28;20029;-81
2023/01/12 08:56:25;;;;;;;9.07;1.23;;;;;;;;;;5017163;28;20124;-80
2023/01/12 08:58:50;;;;;;;5.22;1.38;;;;;;;;;;5025301;28;20159;-80
2023/01/12 09:01:18;;;;;;;2.70;1.02;;;;;;;;;;5023610;28;20037;-79
2023/01/12 09:03:44;;;;;;;6.35;1.50;;;;;;;;;;5013974;28;20109;-79
2023/01/12 09:06:11;;;;;;;4.47;1.27;;;;;;;;;;5005435;28;20030;-79
2023/01/12 09:08:36;;;;;;;4.95;1.13;;;;;;;;;;5004056;28;20754;-80
2023/01/12 09:11:03;;;;;;;8.75;1.25;;;;;;;;;;5017933;28;20064;-80
2023/01/12 09:13:29;;;;;;;7.68;1.33;;;;;;;;;;5021898;28;20438;-80
2023/01/12 09:15:54;;;;;;;4.78;1.20;;;;;;;;;;5025248;28;20526;-80
2023/01/12 09:18:19;;;;;;;5.55;1.27;;;;;;;;;;5024800;28;20052;-80
2023/01/12 09:20:46;;;;;;;8.27;1.85;;;;;;;;;;5024737;28;20584;-80
2023/01/12 09:23:11;;;;;;;5.15;0.85;;;;;;;;;;5025090;28;20037;-80
2023/01/12 09:25:37;;;;;;;4.03;1.02;;;;;;;;;;5025699;28;20764;-80
2023/01/12 09:28:02;;;;;;;5.57;1.23;;;;;;;;;;5025213;28;20088;-80
2023/01/12 09:30:27;;;;;;;9.35;1.27;;;;;;;;;;5015099;28;20026;-79
2023/01/12 09:32:55;;;;;;;3.88;0.70;;;;;;;;;;5003011;28;20030;-81
2023/01/12 09:35:21;;;;;;;5.28;1.10;;;;;;;;;;5003938;28;20025;-80
2023/01/12 09:37:46;;;;;;;7.22;1.65;;;;;;;;;;5009284;28;20014;-80
2023/01/12 09:40:16;;;;;;;4.05;1.20;;;;;;;;;;5020978;28;20041;-80
2023/01/12 09:48:20;;;;;;;6.30;1.33;;;;;;;;;;5005337;28;20072;-80
2023/01/12 09:50:56;;;;;;;4.57;1.48;;;;;;;;;;5004616;28;20081;-80
2023/01/12 09:53:30;;;;;;;10.35;1.27;;;;;;;;;;5011466;28;20026;-80
2023/01/12 09:56:16;;;;;;;5.05;1.27;;;;;;;;;;5016827;28;20021;-81
2023/01/12 09:59:06;;;;;;;7.25;1.25;;;;;;;;;;5030170;28;20052;-79
2023/01/12 10:01:35;;;;;;;6.55;1.13;;;;;;;;;;5022463;28;20065;-81
2023/01/12 10:04:01;;;;;;;4.53;1.00;;;;;;;;;;5036054;28;20047;-80
2023/01/12 10:06:27;;;;;;;5.65;1.40;;;;;;;;;;5044711;28;20045;-80
2023/01/12 10:08:58;;;;;;;7.82;1.05;;;;;;;;;;5033222;28;20164;-80
2023/01/12 10:11:54;;;;;;;12.38;1.40;;;;;;;;;;5042801;28;20052;-80
2023/01/12 10:14:54;;;;;;;7.65;2.03;;;;;;;;;;5039787;28;20544;-82
2023/01/12 10:17:32;;;;;;;4.82;1.38;;;;;;;;;;5022919;28;20461;-82
2023/01/12 10:20:32;;;;;;;3.85;1.10;;;;;;;;;;5023434;28;20033;-83
2023/01/12 10:23:08;;;;;;;6.07;1.40;;;;;;;;;;5023948;28;20095;-82
2023/01/12 10:25:40;;;;;;;6.20;1.13;;;;;;;;;;5023915;28;20041;-82
2023/01/12 10:28:06;;;;;;;8.40;1.95;;;;;;;;;;5029485;28;20518;-82
2023/01/12 10:30:36;;;;;;;7.28;1.05;;;;;;;;;;5028677;28;20037;-82
2023/01/12 10:33:20;;;;;;;6.05;0.95;;;;;;;;;;5019576;28;20037;-82
2023/01/12 10:36:08;;;;;;;4.03;1.63;;;;;;;;;;5020781;28;20041;-81
2023/01/12 10:38:55;;;;;;;10.50;1.73;;;;;;;;;;5012623;28;20034;-82
2023/01/12 10:41:25;;;;;;;3.40;1.60;;;;;;;;;;5024166;28;20022;-81
2023/01/12 10:43:57;;;;;;;6.10;1.15;;;;;;;;;;5022686;28;20084;-81
2023/01/12 10:46:25;;;;;;;5.13;1.48;;;;;;;;;;5023313;28;20037;-81
2023/01/12 10:48:52;;;;;;;4.05;1.08;;;;;;;;;;5022641;28;20040;-82
2023/01/12 10:51:25;;;;;;;2.78;1.25;;;;;;;;;;5023924;28;20030;-82
2023/01/12 10:53:55;;;;;;;4.95;1.52;;;;;;;;;;5024338;28;20061;-81
2023/01/12 10:56:26;;;;;;;5.75;1.67;;;;;;;;;;5023294;28;20017;-81
2023/01/12 10:58:55;;;;;;;3.65;1.02;;;;;;;;;;5023339;28;20032;-82
2023/01/12 11:01:21;;;;;;;2.55;1.10;;;;;;;;;;5022149;28;20105;-81
2023/01/12 11:03:47;;;;;;;2.75;1.08;;;;;;;;;;5023104;28;20120;-82
2023/01/12 11:06:23;;;;;;;4.50;1.20;;;;;;;;;;5025431;28;20091;-81
2023/01/12 11:08:48;;;;;;;8.13;1.83;;;;;;;;;;5016281;28;20038;-82
2023/01/12 11:11:31;;;;;;;7.70;1.80;;;;;;;;;;5006712;28;20026;-81
2023/01/12 11:13:59;;;;;;;1.85;1.05;;;;;;;;;;5008203;28;20072;-82
2023/01/12 11:16:40;;;;;;;6.47;1.10;;;;;;;;;;5008247;28;20049;-81
2023/01/12 11:19:15;;;;;;;2.92;1.08;;;;;;;;;;5007023;28;20113;-82
2023/01/12 11:21:45;;;;;;;3.67;1.10;;;;;;;;;;5006575;28;20045;-80
2023/01/12 11:24:25;;;;;;;3.03;0.85;;;;;;;;;;5008196;28;20065;-81
2023/01/12 11:27:01;;;;;;;3.97;1.15;;;;;;;;;;5023237;28;20037;-82
2023/01/12 11:29:42;;;;;;;3.58;0.90;;;;;;;;;;5025310;28;20740;-81
2023/01/12 11:32:46;;;;;;;4.63;1.17;;;;;;;;;;5027888;28;20025;-81
2023/01/12 11:35:33;;;;;;;3.60;1.10;;;;;;;;;;5023392;28;20410;-81
2023/01/12 11:38:08;;;;;;;2.00;0.90;;;;;;;;;;5027981;28;20630;-80
2023/01/12 11:40:36;;;;;;;6.78;1.42;;;;;;;;;;5047083;28;20514;-81
2023/01/12 11:46:11;;;;;;;4.50;1.30;;;;;;;;;;5047376;28;20068;-81
2023/01/12 11:48:44;;;;;;;3.47;1.30;;;;;;;;;;5039558;28;20697;-81
2023/01/12 11:51:12;;;;;;;3.05;1.00;;;;;;;;;;5032065;28;20117;-81
2023/01/12 11:53:39;;;;;;;1.83;0.80;;;;;;;;;;5021953;28;20117;-81
2023/01/12 11:56:07;;;;;;;1.08;0.68;;;;;;;;;;5007194;28;20056;-81
2023/01/12 11:58:42;;;;;;;4.28;1.35;;;;;;;;;;5026269;28;20255;-81
2023/01/12 12:01:34;;;;;;;2.95;1.00;;;;;;;;;;5044330;28;20033;-81
2023/01/12 12:04:04;;;;;;;4.60;1.00;;;;;;;;;;5029190;28;20041;-80
2023/01/12 12:06:55;;;;;;;4.20;1.15;;;;;;;;;;5026282;28;20061;-81
2023/01/12 12:09:32;;;;;;;7.97;1.23;;;;;;;;;;5023383;28;20040;-81
2023/01/12 12:12:10;;;;;;;3.65;1.30;;;;;;;;;;5024956;28;20052;-81
2023/01/12 12:14:42;;;;;;;3.03;1.02;;;;;;;;;;5024809;28;20507;-81
2023/01/12 12:17:10;;;;;;;3.35;0.98;;;;;;;;;;5025886;28;20353;-81
2023/01/12 12:20:12;;;;;;;6.97;1.27;;;;;;;;;;5023892;28;20051;-81
2023/01/12 12:22:46;;;;;;;2.88;1.05;;;;;;;;;;5044325;28;20045;-81
2023/01/12 12:25:21;;;;;;;2.92;0.90;;;;;;;;;;5045269;28;20527;-81
2023/01/12 12:28:07;;;;;;;4.65;1.00;;;;;;;;;;5036557;28;20032;-81
2023/01/12 12:30:54;;;;;;;2.70;0.90;;;;;;;;;;5043355;28;20299;-81
2023/01/12 12:33:41;;;;;;;1.73;1.13;;;;;;;;;;5046458;28;20037;-81
2023/01/12 12:36:13;;;;;;;2.65;1.10;;;;;;;;;;5044880;28;20041;-81
2023/01/12 12:38:47;;;;;;;4.07;0.90;;;;;;;;;;5046274;28;20146;-81
2023/01/12 12:47:27;;;;;;;3.72;0.85;;;;;;;;;;5043449;28;20044;-81
2023/01/12 12:49:55;;;;;;;4.30;1.02;;;;;;;;;;5043018;28;20171;-82
2023/01/12 12:52:22;;;;;;;3.10;0.75;;;;;;;;;;5025024;28;20044;-81
2023/01/12 12:54:47;;;;;;;2.28;1.33;;;;;;;;;;5024105;28;20690;-81
2023/01/12 12:57:14;;;;;;;2.83;0.90;;;;;;;;;;5019367;28;20042;-81
2023/01/12 12:59:40;;;;;;;1.38;0.95;;;;;;;;;;5020337;28;20038;-81
2023/01/12 13:02:51;;;;;;;3.85;0.73;;;;;;;;;;5010969;28;20033;-80
2023/01/12 13:05:39;;;;;;;1.80;0.75;;;;;;;;;;5014246;28;20107;-81
2023/01/12 13:08:15;;;;;;;1.40;0.75;;;;;;;;;;5008810;28;20037;-80
2023/01/12 13:10:48;;;;;;;5.38;0.93;;;;;;;;;;5015265;28;20033;-79
2023/01/12 13:13:31;;;;;;;2.43;0.93;;;;;;;;;;5010405;28;20069;-80
2023/01/12 13:16:16;;;;;;;1.52;0.77;;;;;;;;;;5014093;28;20037;-79
2023/01/12 13:19:04;;;;;;;6.10;1.08;;;;;;;;;;4999408;28;20128;-79
2023/01/12 13:21:41;;;;;;;1.77;0.82;;;;;;;;;;5040552;28;20068;-79
2023/01/12 13:24:12;;;;;;;3.05;0.90;;;;;;;;;;5037936;28;20110;-79
2023/01/12 13:26:39;;;;;;;3.13;0.70;;;;;;;;;;5031564;28;20061;-79
2023/01/12 13:29:25;;;;;;;4.97;0.70;;;;;;;;;;5007853;28;20068;-80
2023/01/12 13:31:55;;;;;;;10.18;1.27;;;;;;;;;;5023815;28;20045;-80
2023/01/12 13:34:52;;;;;;;2.60;0.95;;;;;;;;;;5023323;28;20040;-81
2023/01/12 13:37:22;;;;;;;2.67;0.85;;;;;;;;;;5000858;28;20585;-80
2023/01/12 13:40:11;;;;;;;6.88;0.98;;;;;;;;;;5024220;28;20160;-81
2023/01/12 13:45:21;;;;;;;3.80;0.75;;;;;;;;;;5005383;28;20048;-81
2023/01/12 13:47:50;;;;;;;3.47;0.82;;;;;;;;;;5003169;28;20161;-81
2023/01/12 13:50:19;;;;;;;2.58;0.80;;;;;;;;;;5004142;28;20022;-79
2023/01/12 13:52:58;;;;;;;1.45;0.80;;;;;;;;;;5024260;28;20029;-81
2023/01/12 13:55:27;;;;;;;2.38;0.90;;;;;;;;;;5024700;28;20040;-80
2023/01/12 13:58:15;;;;;;;3.22;0.88;;;;;;;;;;5022846;28;20108;-80
2023/01/12 14:00:41;;;;;;;0.88;0.80;;;;;;;;;;5023488;28;20065;-80
2023/01/12 14:03:23;;;;;;;1.95;0.80;;;;;;;;;;5010192;28;20057;-80
2023/01/12 14:06:17;;;;;;;1.55;1.00;;;;;;;;;;5021052;28;20029;-80
2023/01/12 14:08:52;;;;;;;2.65;1.10;;;;;;;;;;5022988;28;20137;-80
2023/01/12 14:11:38;;;;;;;2.72;0.90;;;;;;;;;;5023050;28;20020;-80
2023/01/12 14:20:19;;;;;;;5.30;1.40;;;;;;;;;;5005900;28;20088;-80
2023/01/12 14:22:45;;;;;;;2.83;1.00;;;;;;;;;;5021881;28;20603;-80
2023/01/12 14:25:23;;;;;;;2.90;0.82;;;;;;;;;;4989668;28;20034;-79
2023/01/12 14:27:53;;;;;;;2.42;0.77;;;;;;;;;;4997911;28;20036;-79
2023/01/12 14:30:21;;;;;;;2.97;1.13;;;;;;;;;;4996910;28;20720;-80
2023/01/12 14:32:48;;;;;;;1.33;0.90;;;;;;;;;;4985961;28;20036;-79
2023/01/12 14:35:23;;;;;;;1.48;0.90;;;;;;;;;;5004170;28;20113;-78
2023/01/12 14:37:52;;;;;;;2.17;1.40;;;;;;;;;;5004452;28;20536;-79
2023/01/12 14:40:29;;;;;;;1.65;1.00;;;;;;;;;;4967149;28;20599;-80
2023/01/12 14:48:53;;;;;;;4.63;0.93;;;;;;;;;;5007373;28;20125;-80
2023/01/12 14:51:27;;;;;;;2.20;0.85;;;;;;;;;;5007150;28;20109;-80
2023/01/12 14:54:15;;;;;;;0.73;0.50;;;;;;;;;;4990667;28;20038;-80
2023/01/12 14:57:02;;;;;;;6.18;0.98;;;;;;;;;;5008030;28;20034;-79
2023/01/12 14:59:30;;;;;;;2.05;0.68;;;;;;;;;;4978900;28;20058;-79
2023/01/12 15:02:25;;;;;;;3.80;0.70;;;;;;;;;;4997595;28;21285;-79
2023/01/12 15:04:53;;;;;;;7.22;0.98;;;;;;;;;;4986217;28;20080;-79
2023/01/12 15:07:20;;;;;;;2.72;1.05;;;;;;;;;;5009914;28;20573;-80
2023/01/12 15:09:58;;;;;;;2.55;0.70;;;;;;;;;;5008021;28;20037;-79
2023/01/12 15:12:29;;;;;;;0.95;0.63;;;;;;;;;;5002961;28;20060;-80
2023/01/12 15:15:19;;;;;;;2.58;0.90;;;;;;;;;;5008659;28;20025;-79
2023/01/12 15:26:06;;;;;;;0.65;0.65;;;;;;;;;;5007981;28;20692;-80
2023/01/12 15:28:32;;;;;;;1.35;0.70;;;;;;;;;;5017682;28;20108;-80
2023/01/12 15:30:57;;;;;;;1.42;0.60;;;;;;;;;;5027121;28;20029;-80
2023/01/12 15:33:22;;;;;;;1.30;0.80;;;;;;;;;;5004337;28;20033;-80
2023/01/12 15:35:48;;;;;;;0.95;0.77;;;;;;;;;;5025595;28;20116;-80
2023/01/12 15:38:17;;;;;;;2.78;1.00;;;;;;;;;;5025607;28;20029;-80
2023/01/12 15:40:43;;;;;;;3.15;0.90;;;;;;;;;;5023350;28;20030;-80
2023/01/12 15:43:16;;;;;;;2.00;0.95;;;;;;;;;;5006528;28;20823;-80
2023/01/12 15:45:46;;;;;;;2.22;0.80;;;;;;;;;;5026105;28;21062;-80
2023/01/12 15:48:13;;;;;;;1.58;0.85;;;;;;;;;;4991830;28;20044;-80
2023/01/12 15:50:40;;;;;;;2.42;0.80;;;;;;;;;;4988167;28;20534;-80
2023/01/12 15:53:15;;;;;;;2.35;0.90;;;;;;;;;;4986586;28;20057;-79
2023/01/12 15:55:40;;;;;;;3.33;1.10;;;;;;;;;;4980618;28;20018;-80
2023/01/12 15:58:06;;;;;;;2.83;1.15;;;;;;;;;;4990767;28;20415;-79
2023/01/12 16:00:31;;;;;;;2.33;0.80;;;;;;;;;;4987797;28;20034;-80
2023/01/12 16:02:56;;;;;;;3.10;0.90;;;;;;;;;;4987956;28;20038;-79
2023/01/12 16:05:22;;;;;;;1.75;0.80;;;;;;;;;;4984599;28;20026;-79
2023/01/12 16:07:48;;;;;;;1.40;0.75;;;;;;;;;;5001242;28;20033;-78